createdAt,value
2017-12-10T00:02:15.421Z,998.95
2017-12-10T00:07:11.016Z,998.93
2017-12-10T00:12:06.735Z,998.76
2017-12-10T00:17:02.396Z,998.65
2017-12-10T00:21:57.857Z,998.53
2017-12-10T00:26:54.684Z,998.36
2017-12-10T00:31:50.305Z,998.19
2017-12-10T00:36:46.982Z,998.10
2017-12-10T00:41:43.341Z,997.85
2017-12-10T00:46:38.658Z,997.77
2017-12-10T00:51:34.290Z,997.73
2017-12-10T00:56:29.909Z,997.70
2017-12-10T01:01:27.420Z,997.62
2017-12-10T01:06:22.741Z,997.53
2017-12-10T01:11:19.206Z,997.44
2017-12-10T01:16:14.700Z,997.40
2017-12-10T01:21:09.725Z,997.28
2017-12-10T01:26:06.204Z,997.34
2017-12-10T01:31:02.888Z,997.10
2017-12-10T01:35:58.479Z,997.17
2017-12-10T01:40:54.191Z,997.04
2017-12-10T01:45:49.833Z,997.03
2017-12-10T01:50:45.441Z,997.00
2017-12-10T01:55:41.040Z,996.88
2017-12-10T02:00:36.761Z,996.82
2017-12-10T02:05:33.130Z,996.63
2017-12-10T02:10:28.404Z,996.57
2017-12-10T02:15:24.090Z,996.34
2017-12-10T02:20:20.692Z,996.36
2017-12-10T02:25:16.990Z,996.26
2017-12-10T02:30:12.222Z,996.17
2017-12-10T02:35:08.183Z,996.21
2017-12-10T02:40:04.705Z,996.09
2017-12-10T02:45:00.288Z,995.88
2017-12-10T02:49:57.700Z,995.73
2017-12-10T02:54:53.045Z,995.51
2017-12-10T02:59:48.640Z,995.49
2017-12-10T03:04:44.473Z,995.28
2017-12-10T03:09:40.318Z,995.20
2017-12-10T03:14:36.594Z,995.07
2017-12-10T03:19:33.315Z,995.09
2017-12-10T03:24:28.680Z,994.95
2017-12-10T03:29:24.235Z,994.81
2017-12-10T03:34:20.003Z,994.72
2017-12-10T03:39:15.777Z,994.56
2017-12-10T03:44:13.180Z,994.52
2017-12-10T03:49:08.592Z,994.29
2017-12-10T03:54:05.303Z,994.26
2017-12-10T03:59:00.694Z,994.13
2017-12-10T04:03:56.329Z,994.01
2017-12-10T04:08:51.882Z,993.89
2017-12-10T04:13:48.555Z,993.81
2017-12-10T04:18:44.130Z,993.67
2017-12-10T04:23:39.833Z,993.54
2017-12-10T04:28:35.359Z,993.43
2017-12-10T04:33:30.883Z,993.49
2017-12-10T04:38:26.719Z,993.28
2017-12-10T04:43:22.377Z,993.10
2017-12-10T04:48:17.345Z,993.02
2017-12-10T04:53:13.846Z,992.93
2017-12-10T04:58:09.002Z,992.82
2017-12-10T05:03:04.802Z,992.77
2017-12-10T05:08:00.550Z,992.63
2017-12-10T05:12:57.781Z,992.55
2017-12-10T05:17:53.138Z,992.36
2017-12-10T05:22:48.723Z,992.10
2017-12-10T05:27:44.082Z,992.05
2017-12-10T05:32:39.529Z,991.84
2017-12-10T05:37:34.924Z,991.64
2017-12-10T05:42:31.324Z,991.51
2017-12-10T05:47:27.565Z,991.34
2017-12-10T05:52:24.085Z,991.23
2017-12-10T05:57:20.284Z,990.99
2017-12-10T06:02:16.389Z,990.88
2017-12-10T06:07:12.128Z,990.58
2017-12-10T06:12:07.999Z,990.59
2017-12-10T06:17:04.613Z,990.42
2017-12-10T06:22:00.868Z,990.27
2017-12-10T06:26:56.235Z,990.13
2017-12-10T06:31:51.891Z,990.00
2017-12-10T06:36:47.486Z,989.83
2017-12-10T06:41:44.160Z,989.76
2017-12-10T06:46:39.474Z,989.56
2017-12-10T06:51:35.964Z,989.45
2017-12-10T06:56:31.676Z,989.24
2017-12-10T07:01:27.191Z,989.15
2017-12-10T07:06:22.703Z,989.07
2017-12-10T07:11:18.323Z,989.00
2017-12-10T07:16:14.861Z,988.98
2017-12-10T07:21:10.241Z,988.74
2017-12-10T07:26:05.757Z,988.50
2017-12-10T07:31:01.404Z,988.45
2017-12-10T07:35:57.883Z,988.26
2017-12-10T07:40:54.254Z,987.94
2017-12-10T07:45:50.920Z,987.83
2017-12-10T07:50:47.151Z,987.59
2017-12-10T07:55:42.842Z,987.38
2017-12-10T08:00:39.581Z,987.24
2017-12-10T08:05:35.028Z,987.18
2017-12-10T08:10:30.711Z,986.89
2017-12-10T08:15:29.375Z,986.70
2017-12-10T08:20:24.635Z,986.63
2017-12-10T08:25:20.315Z,986.36
2017-12-10T08:30:15.850Z,986.31
2017-12-10T08:35:11.525Z,986.08
2017-12-10T08:40:07.782Z,986.02
2017-12-10T08:45:03.553Z,985.80
2017-12-10T08:50:00.171Z,985.55
2017-12-10T08:54:55.621Z,985.38
2017-12-10T08:59:52.075Z,985.10
2017-12-10T09:04:47.442Z,985.06
2017-12-10T09:09:45.215Z,984.65
2017-12-10T09:14:40.448Z,984.46
2017-12-10T09:19:35.957Z,984.02
2017-12-10T09:24:32.636Z,983.91
2017-12-10T09:29:28.478Z,983.64
2017-12-10T09:34:23.853Z,983.55
2017-12-10T09:39:20.502Z,983.21
2017-12-10T09:44:15.971Z,983.02
2017-12-10T09:49:12.026Z,982.77
2017-12-10T09:54:08.677Z,982.57
2017-12-10T09:59:06.139Z,982.39
2017-12-10T10:04:02.249Z,982.19
2017-12-10T10:08:57.550Z,981.81
2017-12-10T10:13:53.270Z,981.54
2017-12-10T10:18:49.847Z,981.46
2017-12-10T10:23:45.327Z,981.08
2017-12-10T10:28:40.859Z,980.93
2017-12-10T10:33:36.708Z,980.68
2017-12-10T10:38:32.428Z,980.33
2017-12-10T10:43:27.831Z,980.08
2017-12-10T10:48:23.820Z,979.87
2017-12-10T10:53:19.798Z,979.58
2017-12-10T10:58:15.334Z,979.27
2017-12-10T11:03:11.037Z,979.01
2017-12-10T11:08:07.597Z,978.75
2017-12-10T11:13:03.776Z,978.49
2017-12-10T11:17:59.574Z,978.13
2017-12-10T11:22:56.406Z,977.90
2017-12-10T11:27:51.804Z,977.71
2017-12-10T11:32:47.513Z,977.45
2017-12-10T11:37:44.325Z,977.32
2017-12-10T11:42:40.184Z,977.22
2017-12-10T11:47:35.999Z,977.05
2017-12-10T11:52:32.350Z,977.06
2017-12-10T11:57:27.844Z,976.75
2017-12-10T12:02:24.307Z,976.44
2017-12-10T12:07:19.436Z,976.23
2017-12-10T12:12:14.616Z,975.98
2017-12-10T12:17:10.247Z,975.67
2017-12-10T12:22:06.804Z,975.49
2017-12-10T12:27:03.732Z,975.36
2017-12-10T12:31:59.152Z,975.28
2017-12-10T12:36:54.982Z,975.27
2017-12-10T12:41:50.531Z,975.24
2017-12-10T12:46:45.942Z,974.97
2017-12-10T12:51:41.597Z,974.85
2017-12-10T12:56:37.091Z,974.68
2017-12-10T13:01:33.786Z,974.52
2017-12-10T13:06:30.144Z,974.23
2017-12-10T13:11:26.414Z,974.09
2017-12-10T13:16:21.777Z,973.87
2017-12-10T13:21:17.460Z,973.69
2017-12-10T13:26:12.992Z,973.66
2017-12-10T13:31:09.762Z,973.44
2017-12-10T13:36:04.980Z,973.19
2017-12-10T13:41:00.450Z,973.06
2017-12-10T13:45:56.076Z,972.75
2017-12-10T13:50:51.510Z,972.55
2017-12-10T13:55:48.145Z,972.31
2017-12-10T14:00:44.118Z,972.04
2017-12-10T14:05:39.682Z,971.87
2017-12-10T14:10:35.155Z,971.75
2017-12-10T14:15:30.811Z,971.57
2017-12-10T14:20:26.242Z,971.32
2017-12-10T14:25:21.699Z,971.17
2017-12-10T14:30:17.309Z,971.00
2017-12-10T14:35:15.043Z,970.84
2017-12-10T14:40:10.207Z,970.79
2017-12-10T14:45:06.970Z,970.71
2017-12-10T14:50:02.982Z,970.48
2017-12-10T14:54:58.181Z,970.41
2017-12-10T14:59:53.916Z,970.08
2017-12-10T15:04:49.364Z,970.04
2017-12-10T15:09:45.081Z,969.91
2017-12-10T15:14:40.912Z,969.80
2017-12-10T15:19:36.576Z,969.59
2017-12-10T15:24:33.002Z,969.52
2017-12-10T15:29:30.761Z,969.52
2017-12-10T15:34:25.800Z,969.31
2017-12-10T15:39:21.373Z,969.35
2017-12-10T15:44:17.028Z,969.24
2017-12-10T15:49:13.551Z,969.12
2017-12-10T15:54:09.834Z,969.00
2017-12-10T15:59:05.410Z,968.84
2017-12-10T16:04:02.048Z,968.69
2017-12-10T16:08:57.299Z,968.68
2017-12-10T16:13:54.559Z,968.65
2017-12-10T16:18:50.338Z,968.37
2017-12-10T16:23:47.041Z,968.31
2017-12-10T16:28:42.441Z,968.18
2017-12-10T16:33:38.014Z,968.18
2017-12-10T16:38:33.713Z,967.92
2017-12-10T16:43:29.338Z,967.85
2017-12-10T16:48:25.562Z,967.80
2017-12-10T16:53:21.945Z,967.76
2017-12-10T16:58:19.405Z,967.52
2017-12-10T17:03:14.694Z,967.75
2017-12-10T17:08:10.179Z,967.53
2017-12-10T17:13:06.394Z,967.50
2017-12-10T17:18:01.963Z,967.40
2017-12-10T17:22:57.640Z,967.31
2017-12-10T17:27:53.203Z,967.09
2017-12-10T17:32:49.440Z,966.96
2017-12-10T17:37:45.111Z,966.87
2017-12-10T17:42:40.619Z,966.69
2017-12-10T17:47:37.461Z,966.59
2017-12-10T17:52:34.008Z,966.44
2017-12-10T17:57:30.741Z,966.37
2017-12-10T18:02:26.937Z,966.22
2017-12-10T18:07:22.622Z,966.33
2017-12-10T18:12:18.364Z,966.37
2017-12-10T18:17:14.221Z,966.34
2017-12-10T18:22:11.887Z,966.35
2017-12-10T18:27:07.460Z,966.27
2017-12-10T18:32:03.331Z,966.38
2017-12-10T18:36:59.070Z,966.48
2017-12-10T18:41:54.840Z,966.58
2017-12-10T18:46:51.779Z,966.70
2017-12-10T18:51:48.438Z,966.64
2017-12-10T18:56:44.871Z,966.66
2017-12-10T19:01:40.374Z,966.52
2017-12-10T19:06:37.171Z,966.63
2017-12-10T19:11:32.696Z,966.74
2017-12-10T19:16:29.668Z,966.77
2017-12-10T19:21:26.033Z,966.77
2017-12-10T19:26:21.713Z,966.69
2017-12-10T19:31:17.568Z,966.80
2017-12-10T19:36:13.442Z,966.78
2017-12-10T19:41:09.689Z,966.87
2017-12-10T19:46:05.480Z,966.90
2017-12-10T19:51:01.271Z,966.84
2017-12-10T19:55:57.145Z,966.99
2017-12-10T20:00:52.845Z,967.07
2017-12-10T20:05:48.420Z,967.12
2017-12-10T20:10:44.295Z,967.09
2017-12-10T20:15:40.988Z,967.21
2017-12-10T20:20:37.338Z,967.20
2017-12-10T20:25:33.863Z,967.24
2017-12-10T20:30:30.110Z,967.19
2017-12-10T20:35:25.615Z,967.01
2017-12-10T20:40:22.654Z,967.13
2017-12-10T20:45:19.127Z,967.21
2017-12-10T20:50:14.524Z,967.31
2017-12-10T20:55:11.276Z,967.24
2017-12-10T21:00:06.667Z,967.31
2017-12-10T21:05:03.015Z,967.49
2017-12-10T21:09:58.560Z,967.55
2017-12-10T21:14:54.315Z,967.77
2017-12-10T21:19:50.926Z,967.72
2017-12-10T21:24:48.090Z,967.76
2017-12-10T21:29:43.839Z,967.74
2017-12-10T21:34:39.293Z,967.95
2017-12-10T21:39:34.907Z,967.98
2017-12-10T21:44:31.533Z,967.88
2017-12-10T21:49:27.710Z,967.96
2017-12-10T21:54:23.321Z,967.87
2017-12-10T21:59:18.825Z,968.20
2017-12-10T22:04:15.557Z,968.19
2017-12-10T22:09:10.920Z,968.28
2017-12-10T22:14:06.709Z,968.50
2017-12-10T22:19:02.480Z,968.83
2017-12-10T22:23:58.038Z,968.87
2017-12-10T22:28:54.289Z,969.32
2017-12-10T22:33:49.806Z,969.63
2017-12-10T22:38:45.885Z,969.76
2017-12-10T22:43:41.503Z,969.81
2017-12-10T22:48:37.925Z,970.05
2017-12-10T22:53:33.426Z,970.34
2017-12-10T22:58:30.031Z,970.60
2017-12-10T23:03:27.360Z,970.71
2017-12-10T23:08:22.500Z,970.89
2017-12-10T23:13:18.118Z,970.96
2017-12-10T23:18:14.009Z,971.32
2017-12-10T23:23:10.559Z,971.75
2017-12-10T23:28:06.014Z,971.86
2017-12-10T23:33:01.531Z,972.05
2017-12-10T23:37:57.829Z,972.29
2017-12-10T23:42:53.486Z,972.52
2017-12-10T23:47:48.995Z,972.70
2017-12-10T23:52:45.110Z,973.08
2017-12-10T23:57:40.766Z,973.45
